sensor_id;sensor_type;location;lat;lon;timestamp;temperature;humidity
22968;DHT22;11650;48.106;-1.696;2023-07-20T00:02:23;17.80;99.90
22968;DHT22;11650;48.106;-1.696;2023-07-20T00:04:49;17.70;99.90
22968;DHT22;11650;48.106;-1.696;2023-07-20T00:07:15;17.70;99.90
22968;DHT22;11650;48.106;-1.696;2023-07-20T00:09:40;17.60;99.90
22968;DHT22;11650;48.106;-1.696;2023-07-20T00:12:06;17.60;99.90
22968;DHT22;11650;48.106;-1.696;2023-07-20T00:14:32;17.60;99.90
22968;DHT22;11650;48.106;-1.696;2023-07-20T00:16:58;17.60;99.90
22968;DHT22;11650;48.106;-1.696;2023-07-20T00:19:24;17.50;99.90
22968;DHT22;11650;48.106;-1.696;2023-07-20T00:21:51;17.50;99.90
22968;DHT22;11650;48.106;-1.696;2023-07-20T00:24:16;17.40;99.90
22968;DHT22;11650;48.106;-1.696;2023-07-20T00:26:43;17.40;99.90
22968;DHT22;11650;48.106;-1.696;2023-07-20T00:29:09;17.30;99.90
22968;DHT22;11650;48.106;-1.696;2023-07-20T00:31:35;17.30;99.90
22968;DHT22;11650;48.106;-1.696;2023-07-20T00:34:02;17.30;99.90
22968;DHT22;11650;48.106;-1.696;2023-07-20T00:36:28;17.30;99.90
22968;DHT22;11650;48.106;-1.696;2023-07-20T00:38:54;17.30;99.90
22968;DHT22;11650;48.106;-1.696;2023-07-20T00:41:20;17.40;99.90
22968;DHT22;11650;48.106;-1.696;2023-07-20T00:43:45;17.50;99.90
22968;DHT22;11650;48.106;-1.696;2023-07-20T00:46:11;17.40;99.90
22968;DHT22;11650;48.106;-1.696;2023-07-20T00:48:37;17.30;99.90
22968;DHT22;11650;48.106;-1.696;2023-07-20T00:51:04;17.40;99.90
22968;DHT22;11650;48.106;-1.696;2023-07-20T00:53:30;17.50;99.90
22968;DHT22;11650;48.106;-1.696;2023-07-20T00:55:55;17.50;99.90
22968;DHT22;11650;48.106;-1.696;2023-07-20T00:58:22;17.50;99.90
22968;DHT22;11650;48.106;-1.696;2023-07-20T01:00:48;17.40;99.90
22968;DHT22;11650;48.106;-1.696;2023-07-20T01:03:14;17.40;99.90
22968;DHT22;11650;48.106;-1.696;2023-07-20T01:05:49;17.30;99.90
22968;DHT22;11650;48.106;-1.696;2023-07-20T01:11:16;17.30;99.90
22968;DHT22;11650;48.106;-1.696;2023-07-20T01:13:44;17.00;99.90
22968;DHT22;11650;48.106;-1.696;2023-07-20T01:16:09;17.00;99.90
22968;DHT22;11650;48.106;-1.696;2023-07-20T01:18:35;17.00;99.90
22968;DHT22;11650;48.106;-1.696;2023-07-20T01:21:09;17.00;99.90
22968;DHT22;11650;48.106;-1.696;2023-07-20T01:26:44;17.00;99.90
22968;DHT22;11650;48.106;-1.696;2023-07-20T01:31:54;16.80;99.90
22968;DHT22;11650;48.106;-1.696;2023-07-20T01:34:22;16.80;99.90
22968;DHT22;11650;48.106;-1.696;2023-07-20T01:36:50;16.80;99.90
22968;DHT22;11650;48.106;-1.696;2023-07-20T01:39:19;16.80;99.90
22968;DHT22;11650;48.106;-1.696;2023-07-20T01:41:46;16.80;99.90
22968;DHT22;11650;48.106;-1.696;2023-07-20T01:44:12;16.80;99.90
22968;DHT22;11650;48.106;-1.696;2023-07-20T01:46:38;16.80;99.90
22968;DHT22;11650;48.106;-1.696;2023-07-20T01:49:04;16.70;99.90
22968;DHT22;11650;48.106;-1.696;2023-07-20T01:51:29;16.70;99.90
22968;DHT22;11650;48.106;-1.696;2023-07-20T01:53:55;16.50;99.90
22968;DHT22;11650;48.106;-1.696;2023-07-20T01:56:20;16.40;99.90
22968;DHT22;11650;48.106;-1.696;2023-07-20T01:58:46;16.40;99.90
22968;DHT22;11650;48.106;-1.696;2023-07-20T02:01:12;16.30;99.90
22968;DHT22;11650;48.106;-1.696;2023-07-20T02:03:37;16.20;99.90
22968;DHT22;11650;48.106;-1.696;2023-07-20T02:06:03;16.20;99.90
22968;DHT22;11650;48.106;-1.696;2023-07-20T02:08:28;16.20;99.90
22968;DHT22;11650;48.106;-1.696;2023-07-20T02:10:54;16.10;99.90
22968;DHT22;11650;48.106;-1.696;2023-07-20T02:13:20;16.10;99.90
22968;DHT22;11650;48.106;-1.696;2023-07-20T02:15:45;16.00;99.90
22968;DHT22;11650;48.106;-1.696;2023-07-20T02:18:12;16.10;99.90
22968;DHT22;11650;48.106;-1.696;2023-07-20T02:20:38;16.10;99.90
22968;DHT22;11650;48.106;-1.696;2023-07-20T02:23:05;16.00;99.90
22968;DHT22;11650;48.106;-1.696;2023-07-20T02:25:31;16.00;99.90
22968;DHT22;11650;48.106;-1.696;2023-07-20T02:27:57;15.90;99.90
22968;DHT22;11650;48.106;-1.696;2023-07-20T02:30:23;15.90;99.90
22968;DHT22;11650;48.106;-1.696;2023-07-20T02:32:49;15.90;99.90
22968;DHT22;11650;48.106;-1.696;2023-07-20T02:35:15;15.90;99.90
22968;DHT22;11650;48.106;-1.696;2023-07-20T02:37:41;15.80;99.90
22968;DHT22;11650;48.106;-1.696;2023-07-20T02:40:08;15.80;99.90
22968;DHT22;11650;48.106;-1.696;2023-07-20T02:42:34;15.80;99.90
22968;DHT22;11650;48.106;-1.696;2023-07-20T02:45:02;15.70;99.90
22968;DHT22;11650;48.106;-1.696;2023-07-20T02:47:28;15.70;99.90
22968;DHT22;11650;48.106;-1.696;2023-07-20T02:49:54;15.70;99.90
22968;DHT22;11650;48.106;-1.696;2023-07-20T02:52:19;15.70;99.90
22968;DHT22;11650;48.106;-1.696;2023-07-20T02:54:45;15.70;99.90
22968;DHT22;11650;48.106;-1.696;2023-07-20T02:57:11;15.70;99.90
22968;DHT22;11650;48.106;-1.696;2023-07-20T02:59:36;15.60;99.90
22968;DHT22;11650;48.106;-1.696;2023-07-20T03:02:02;15.70;99.90
22968;DHT22;11650;48.106;-1.696;2023-07-20T03:04:28;15.60;99.90
22968;DHT22;11650;48.106;-1.696;2023-07-20T03:06:54;15.60;99.90
22968;DHT22;11650;48.106;-1.696;2023-07-20T03:09:20;15.60;99.90
22968;DHT22;11650;48.106;-1.696;2023-07-20T03:11:45;15.50;99.90
22968;DHT22;11650;48.106;-1.696;2023-07-20T03:14:11;15.50;99.90
22968;DHT22;11650;48.106;-1.696;2023-07-20T03:16:37;15.40;99.90
22968;DHT22;11650;48.106;-1.696;2023-07-20T03:19:02;15.50;99.90
22968;DHT22;11650;48.106;-1.696;2023-07-20T03:21:29;15.50;99.90
22968;DHT22;11650;48.106;-1.696;2023-07-20T03:23:55;15.50;99.90
22968;DHT22;11650;48.106;-1.696;2023-07-20T03:26:21;15.40;99.90
22968;DHT22;11650;48.106;-1.696;2023-07-20T03:28:46;15.50;99.90
22968;DHT22;11650;48.106;-1.696;2023-07-20T03:31:12;15.40;99.90
22968;DHT22;11650;48.106;-1.696;2023-07-20T03:33:38;15.30;99.90
22968;DHT22;11650;48.106;-1.696;2023-07-20T03:36:04;15.30;99.90
22968;DHT22;11650;48.106;-1.696;2023-07-20T03:38:29;15.30;99.90
22968;DHT22;11650;48.106;-1.696;2023-07-20T03:40:57;15.30;99.90
22968;DHT22;11650;48.106;-1.696;2023-07-20T03:43:24;15.40;99.90
22968;DHT22;11650;48.106;-1.696;2023-07-20T03:45:50;15.30;99.90
22968;DHT22;11650;48.106;-1.696;2023-07-20T03:48:18;15.20;99.90
22968;DHT22;11650;48.106;-1.696;2023-07-20T03:50:45;15.10;99.90
22968;DHT22;11650;48.106;-1.696;2023-07-20T03:53:14;15.20;99.90
22968;DHT22;11650;48.106;-1.696;2023-07-20T03:55:47;15.20;99.90
22968;DHT22;11650;48.106;-1.696;2023-07-20T03:58:13;15.20;99.90
22968;DHT22;11650;48.106;-1.696;2023-07-20T04:00:39;15.20;99.90
22968;DHT22;11650;48.106;-1.696;2023-07-20T04:03:06;15.10;99.90
22968;DHT22;11650;48.106;-1.696;2023-07-20T04:05:31;15.10;99.90
22968;DHT22;11650;48.106;-1.696;2023-07-20T04:07:58;15.10;99.90
22968;DHT22;11650;48.106;-1.696;2023-07-20T04:10:24;15.10;99.90
22968;DHT22;11650;48.106;-1.696;2023-07-20T04:12:49;15.10;99.90
22968;DHT22;11650;48.106;-1.696;2023-07-20T04:15:15;15.10;99.90
22968;DHT22;11650;48.106;-1.696;2023-07-20T04:17:41;15.10;99.90
22968;DHT22;11650;48.106;-1.696;2023-07-20T04:20:07;15.00;99.90
22968;DHT22;11650;48.106;-1.696;2023-07-20T04:22:33;15.00;99.90
22968;DHT22;11650;48.106;-1.696;2023-07-20T04:24:59;14.90;99.90
22968;DHT22;11650;48.106;-1.696;2023-07-20T04:27:24;14.90;99.90
22968;DHT22;11650;48.106;-1.696;2023-07-20T04:29:50;14.90;99.90
22968;DHT22;11650;48.106;-1.696;2023-07-20T04:32:16;14.90;99.90
22968;DHT22;11650;48.106;-1.696;2023-07-20T04:34:42;14.90;99.90
22968;DHT22;11650;48.106;-1.696;2023-07-20T04:37:07;14.90;99.90
22968;DHT22;11650;48.106;-1.696;2023-07-20T04:39:33;14.90;99.90
22968;DHT22;11650;48.106;-1.696;2023-07-20T04:41:59;15.00;99.90
22968;DHT22;11650;48.106;-1.696;2023-07-20T04:44:25;15.00;99.90
22968;DHT22;11650;48.106;-1.696;2023-07-20T04:46:50;15.00;99.90
22968;DHT22;11650;48.106;-1.696;2023-07-20T04:49:16;14.90;99.90
22968;DHT22;11650;48.106;-1.696;2023-07-20T04:51:42;14.90;99.90
22968;DHT22;11650;48.106;-1.696;2023-07-20T04:54:07;14.90;99.90
22968;DHT22;11650;48.106;-1.696;2023-07-20T04:56:33;14.90;99.90
22968;DHT22;11650;48.106;-1.696;2023-07-20T04:58:59;14.90;99.90
22968;DHT22;11650;48.106;-1.696;2023-07-20T05:01:25;15.00;99.90
22968;DHT22;11650;48.106;-1.696;2023-07-20T05:03:52;15.10;99.90
22968;DHT22;11650;48.106;-1.696;2023-07-20T05:06:18;15.10;99.90
22968;DHT22;11650;48.106;-1.696;2023-07-20T05:08:43;15.20;99.90
22968;DHT22;11650;48.106;-1.696;2023-07-20T05:11:10;15.20;99.90
22968;DHT22;11650;48.106;-1.696;2023-07-20T05:13:36;15.20;99.90
22968;DHT22;11650;48.106;-1.696;2023-07-20T05:16:02;15.10;99.90
22968;DHT22;11650;48.106;-1.696;2023-07-20T05:18:27;15.20;99.90
22968;DHT22;11650;48.106;-1.696;2023-07-20T05:20:53;15.10;99.90
22968;DHT22;11650;48.106;-1.696;2023-07-20T05:23:20;15.20;99.90
22968;DHT22;11650;48.106;-1.696;2023-07-20T05:25:47;15.20;99.90
22968;DHT22;11650;48.106;-1.696;2023-07-20T05:28:12;15.10;99.90
22968;DHT22;11650;48.106;-1.696;2023-07-20T05:30:39;15.20;99.90
22968;DHT22;11650;48.106;-1.696;2023-07-20T05:33:05;15.10;99.90
22968;DHT22;11650;48.106;-1.696;2023-07-20T05:35:31;15.20;99.90
22968;DHT22;11650;48.106;-1.696;2023-07-20T05:37:56;15.30;99.90
22968;DHT22;11650;48.106;-1.696;2023-07-20T05:40:22;15.40;99.90
22968;DHT22;11650;48.106;-1.696;2023-07-20T05:42:48;15.30;99.90
22968;DHT22;11650;48.106;-1.696;2023-07-20T05:45:17;15.50;99.90
22968;DHT22;11650;48.106;-1.696;2023-07-20T05:47:43;15.50;99.90
22968;DHT22;11650;48.106;-1.696;2023-07-20T05:50:09;15.60;99.90
22968;DHT22;11650;48.106;-1.696;2023-07-20T05:52:36;15.70;99.90
22968;DHT22;11650;48.106;-1.696;2023-07-20T05:55:01;15.80;99.90
22968;DHT22;11650;48.106;-1.696;2023-07-20T05:57:27;15.80;99.90
22968;DHT22;11650;48.106;-1.696;2023-07-20T05:59:52;15.90;99.90
22968;DHT22;11650;48.106;-1.696;2023-07-20T06:02:18;16.00;99.90
22968;DHT22;11650;48.106;-1.696;2023-07-20T06:04:44;16.20;99.90
22968;DHT22;11650;48.106;-1.696;2023-07-20T06:07:10;16.20;99.90
22968;DHT22;11650;48.106;-1.696;2023-07-20T06:09:36;16.20;99.90
22968;DHT22;11650;48.106;-1.696;2023-07-20T06:12:01;16.40;99.90
22968;DHT22;11650;48.106;-1.696;2023-07-20T06:14:27;16.50;99.90
22968;DHT22;11650;48.106;-1.696;2023-07-20T06:16:53;16.70;99.90
22968;DHT22;11650;48.106;-1.696;2023-07-20T06:19:18;16.70;99.90
22968;DHT22;11650;48.106;-1.696;2023-07-20T06:21:44;16.80;99.90
22968;DHT22;11650;48.106;-1.696;2023-07-20T06:24:09;16.90;99.90
22968;DHT22;11650;48.106;-1.696;2023-07-20T06:26:35;17.00;99.90
22968;DHT22;11650;48.106;-1.696;2023-07-20T06:29:05;16.90;99.90
22968;DHT22;11650;48.106;-1.696;2023-07-20T06:31:32;16.90;99.90
22968;DHT22;11650;48.106;-1.696;2023-07-20T06:33:57;16.90;99.90
22968;DHT22;11650;48.106;-1.696;2023-07-20T06:36:23;17.00;99.90
22968;DHT22;11650;48.106;-1.696;2023-07-20T06:38:48;17.20;99.90
22968;DHT22;11650;48.106;-1.696;2023-07-20T06:41:14;17.20;99.90
22968;DHT22;11650;48.106;-1.696;2023-07-20T06:43:40;17.30;99.90
22968;DHT22;11650;48.106;-1.696;2023-07-20T06:46:05;17.30;99.90
22968;DHT22;11650;48.106;-1.696;2023-07-20T06:48:31;17.40;99.90
22968;DHT22;11650;48.106;-1.696;2023-07-20T06:50:56;17.70;99.90
22968;DHT22;11650;48.106;-1.696;2023-07-20T06:53:22;17.60;99.90
22968;DHT22;11650;48.106;-1.696;2023-07-20T06:55:48;17.80;99.90
22968;DHT22;11650;48.106;-1.696;2023-07-20T06:58:13;17.50;99.90
22968;DHT22;11650;48.106;-1.696;2023-07-20T07:00:39;17.70;99.90
22968;DHT22;11650;48.106;-1.696;2023-07-20T07:03:05;18.00;99.90
22968;DHT22;11650;48.106;-1.696;2023-07-20T07:05:30;17.80;99.90
22968;DHT22;11650;48.106;-1.696;2023-07-20T07:07:56;18.00;99.90
22968;DHT22;11650;48.106;-1.696;2023-07-20T07:10:22;18.00;99.90
22968;DHT22;11650;48.106;-1.696;2023-07-20T07:12:47;18.10;99.90
22968;DHT22;11650;48.106;-1.696;2023-07-20T07:15:13;18.10;99.90
22968;DHT22;11650;48.106;-1.696;2023-07-20T07:17:38;18.40;99.90
22968;DHT22;11650;48.106;-1.696;2023-07-20T07:20:05;18.20;99.90
22968;DHT22;11650;48.106;-1.696;2023-07-20T07:22:31;18.50;99.90
22968;DHT22;11650;48.106;-1.696;2023-07-20T07:24:56;18.60;99.90
22968;DHT22;11650;48.106;-1.696;2023-07-20T07:27:22;18.70;99.90
22968;DHT22;11650;48.106;-1.696;2023-07-20T07:29:48;18.90;99.90
22968;DHT22;11650;48.106;-1.696;2023-07-20T07:32:15;18.90;99.90
22968;DHT22;11650;48.106;-1.696;2023-07-20T07:34:40;18.80;99.90
22968;DHT22;11650;48.106;-1.696;2023-07-20T07:37:06;18.90;99.90
22968;DHT22;11650;48.106;-1.696;2023-07-20T07:39:32;18.70;99.90
22968;DHT22;11650;48.106;-1.696;2023-07-20T07:41:58;18.40;99.90
22968;DHT22;11650;48.106;-1.696;2023-07-20T07:44:24;18.50;99.90
22968;DHT22;11650;48.106;-1.696;2023-07-20T07:46:50;18.70;99.90
22968;DHT22;11650;48.106;-1.696;2023-07-20T07:49:16;18.90;99.90
22968;DHT22;11650;48.106;-1.696;2023-07-20T07:51:42;19.20;99.90
22968;DHT22;11650;48.106;-1.696;2023-07-20T07:54:08;19.20;99.90
22968;DHT22;11650;48.106;-1.696;2023-07-20T07:56:33;19.40;99.90
22968;DHT22;11650;48.106;-1.696;2023-07-20T07:58:59;19.30;99.90
22968;DHT22;11650;48.106;-1.696;2023-07-20T08:01:24;19.30;99.90
22968;DHT22;11650;48.106;-1.696;2023-07-20T08:03:50;19.30;99.90
22968;DHT22;11650;48.106;-1.696;2023-07-20T08:06:16;19.10;99.90
22968;DHT22;11650;48.106;-1.696;2023-07-20T08:08:42;19.20;99.90
22968;DHT22;11650;48.106;-1.696;2023-07-20T08:11:08;19.00;99.90
22968;DHT22;11650;48.106;-1.696;2023-07-20T08:13:34;18.90;99.90
22968;DHT22;11650;48.106;-1.696;2023-07-20T08:16:00;19.10;99.90
22968;DHT22;11650;48.106;-1.696;2023-07-20T08:18:27;19.10;99.90
22968;DHT22;11650;48.106;-1.696;2023-07-20T08:20:53;19.50;99.90
22968;DHT22;11650;48.106;-1.696;2023-07-20T08:23:19;19.60;99.90
22968;DHT22;11650;48.106;-1.696;2023-07-20T08:25:45;19.70;99.90
22968;DHT22;11650;48.106;-1.696;2023-07-20T08:28:15;19.60;99.90
22968;DHT22;11650;48.106;-1.696;2023-07-20T08:30:44;19.70;99.90
22968;DHT22;11650;48.106;-1.696;2023-07-20T08:33:12;20.00;99.90
22968;DHT22;11650;48.106;-1.696;2023-07-20T08:35:38;20.10;99.90
22968;DHT22;11650;48.106;-1.696;2023-07-20T08:38:04;20.10;99.90
22968;DHT22;11650;48.106;-1.696;2023-07-20T08:40:34;20.20;99.90
22968;DHT22;11650;48.106;-1.696;2023-07-20T08:43:04;20.30;99.90
22968;DHT22;11650;48.106;-1.696;2023-07-20T08:45:33;20.70;99.90
22968;DHT22;11650;48.106;-1.696;2023-07-20T08:48:00;20.50;99.90
22968;DHT22;11650;48.106;-1.696;2023-07-20T08:50:27;20.50;99.90
22968;DHT22;11650;48.106;-1.696;2023-07-20T08:52:55;20.50;99.90
22968;DHT22;11650;48.106;-1.696;2023-07-20T08:55:22;20.00;99.90
22968;DHT22;11650;48.106;-1.696;2023-07-20T08:57:50;19.80;99.90
22968;DHT22;11650;48.106;-1.696;2023-07-20T09:00:19;19.90;99.90
22968;DHT22;11650;48.106;-1.696;2023-07-20T09:02:48;19.90;99.90
22968;DHT22;11650;48.106;-1.696;2023-07-20T09:05:14;20.20;99.90
22968;DHT22;11650;48.106;-1.696;2023-07-20T09:07:40;20.40;99.90
22968;DHT22;11650;48.106;-1.696;2023-07-20T09:10:07;20.50;99.90
22968;DHT22;11650;48.106;-1.696;2023-07-20T09:12:40;20.50;99.90
22968;DHT22;11650;48.106;-1.696;2023-07-20T09:15:06;20.70;99.90
22968;DHT22;11650;48.106;-1.696;2023-07-20T09:17:33;20.70;99.90
22968;DHT22;11650;48.106;-1.696;2023-07-20T09:19:59;20.70;99.90
22968;DHT22;11650;48.106;-1.696;2023-07-20T09:22:30;21.00;99.90
22968;DHT22;11650;48.106;-1.696;2023-07-20T09:24:56;20.70;99.90
22968;DHT22;11650;48.106;-1.696;2023-07-20T09:27:29;20.60;99.90
22968;DHT22;11650;48.106;-1.696;2023-07-20T09:29:56;20.90;99.90
22968;DHT22;11650;48.106;-1.696;2023-07-20T09:32:22;20.90;99.90
22968;DHT22;11650;48.106;-1.696;2023-07-20T09:34:49;21.20;99.90
22968;DHT22;11650;48.106;-1.696;2023-07-20T09:37:23;21.30;99.90
22968;DHT22;11650;48.106;-1.696;2023-07-20T09:39:51;21.30;99.90
22968;DHT22;11650;48.106;-1.696;2023-07-20T09:42:21;21.20;99.90
22968;DHT22;11650;48.106;-1.696;2023-07-20T09:44:47;21.40;99.90
22968;DHT22;11650;48.106;-1.696;2023-07-20T09:47:22;22.10;99.90
22968;DHT22;11650;48.106;-1.696;2023-07-20T09:49:48;22.10;99.90
22968;DHT22;11650;48.106;-1.696;2023-07-20T09:52:15;22.10;99.90
22968;DHT22;11650;48.106;-1.696;2023-07-20T09:54:44;22.50;99.90
22968;DHT22;11650;48.106;-1.696;2023-07-20T09:57:11;22.90;99.90
22968;DHT22;11650;48.106;-1.696;2023-07-20T09:59:38;23.30;99.90
22968;DHT22;11650;48.106;-1.696;2023-07-20T10:02:11;23.00;99.90
22968;DHT22;11650;48.106;-1.696;2023-07-20T10:04:38;22.40;99.90
22968;DHT22;11650;48.106;-1.696;2023-07-20T10:07:10;22.40;99.90
22968;DHT22;11650;48.106;-1.696;2023-07-20T10:09:39;22.40;99.90
22968;DHT22;11650;48.106;-1.696;2023-07-20T10:12:07;22.40;99.90
22968;DHT22;11650;48.106;-1.696;2023-07-20T10:14:38;22.20;99.90
22968;DHT22;11650;48.106;-1.696;2023-07-20T10:17:06;21.90;99.90
22968;DHT22;11650;48.106;-1.696;2023-07-20T10:19:47;22.00;99.90
22968;DHT22;11650;48.106;-1.696;2023-07-20T10:22:20;22.20;99.90
22968;DHT22;11650;48.106;-1.696;2023-07-20T10:24:49;22.50;99.90
22968;DHT22;11650;48.106;-1.696;2023-07-20T10:27:15;22.90;99.90
22968;DHT22;11650;48.106;-1.696;2023-07-20T10:29:42;22.70;99.90
22968;DHT22;11650;48.106;-1.696;2023-07-20T10:32:09;23.10;99.90
22968;DHT22;11650;48.106;-1.696;2023-07-20T10:34:35;23.40;99.90
22968;DHT22;11650;48.106;-1.696;2023-07-20T10:37:00;23.80;99.90
22968;DHT22;11650;48.106;-1.696;2023-07-20T10:39:31;23.80;99.90
22968;DHT22;11650;48.106;-1.696;2023-07-20T10:42:07;23.90;99.90
22968;DHT22;11650;48.106;-1.696;2023-07-20T10:44:33;23.90;99.90
22968;DHT22;11650;48.106;-1.696;2023-07-20T10:47:00;24.20;99.90
22968;DHT22;11650;48.106;-1.696;2023-07-20T10:49:26;23.90;99.90
22968;DHT22;11650;48.106;-1.696;2023-07-20T10:52:00;23.80;99.90
22968;DHT22;11650;48.106;-1.696;2023-07-20T10:57:21;23.70;99.90
22968;DHT22;11650;48.106;-1.696;2023-07-20T10:59:41;23.30;99.90
22968;DHT22;11650;48.106;-1.696;2023-07-20T11:02:10;23.20;99.90
22968;DHT22;11650;48.106;-1.696;2023-07-20T11:04:43;22.90;99.90
22968;DHT22;11650;48.106;-1.696;2023-07-20T11:07:09;23.10;99.90
22968;DHT22;11650;48.106;-1.696;2023-07-20T11:09:36;23.40;99.90
22968;DHT22;11650;48.106;-1.696;2023-07-20T11:12:15;24.00;99.90
22968;DHT22;11650;48.106;-1.696;2023-07-20T11:14:54;24.30;99.90
22968;DHT22;11650;48.106;-1.696;2023-07-20T11:17:31;24.80;99.90
22968;DHT22;11650;48.106;-1.696;2023-07-20T11:19:59;25.00;99.90
22968;DHT22;11650;48.106;-1.696;2023-07-20T11:22:26;24.50;99.90
22968;DHT22;11650;48.106;-1.696;2023-07-20T11:24:55;24.30;99.90
22968;DHT22;11650;48.106;-1.696;2023-07-20T11:27:21;25.40;99.90
22968;DHT22;11650;48.106;-1.696;2023-07-20T11:29:53;25.60;99.90
22968;DHT22;11650;48.106;-1.696;2023-07-20T11:32:22;26.10;99.90
22968;DHT22;11650;48.106;-1.696;2023-07-20T11:34:48;25.90;99.90
22968;DHT22;11650;48.106;-1.696;2023-07-20T11:37:15;26.10;99.90
22968;DHT22;11650;48.106;-1.696;2023-07-20T11:39:42;25.80;99.90
22968;DHT22;11650;48.106;-1.696;2023-07-20T11:42:08;25.30;99.90
22968;DHT22;11650;48.106;-1.696;2023-07-20T11:44:34;25.30;99.90
22968;DHT22;11650;48.106;-1.696;2023-07-20T11:47:10;25.40;99.90
22968;DHT22;11650;48.106;-1.696;2023-07-20T11:49:37;25.40;99.90
22968;DHT22;11650;48.106;-1.696;2023-07-20T11:52:07;25.30;99.90
22968;DHT22;11650;48.106;-1.696;2023-07-20T11:54:34;24.80;99.90
22968;DHT22;11650;48.106;-1.696;2023-07-20T11:57:01;24.20;99.90
22968;DHT22;11650;48.106;-1.696;2023-07-20T11:59:27;24.60;99.90
22968;DHT22;11650;48.106;-1.696;2023-07-20T12:01:52;24.60;99.90
22968;DHT22;11650;48.106;-1.696;2023-07-20T12:04:18;25.10;99.90
22968;DHT22;11650;48.106;-1.696;2023-07-20T12:06:45;25.40;99.90
22968;DHT22;11650;48.106;-1.696;2023-07-20T12:09:16;25.40;99.90
22968;DHT22;11650;48.106;-1.696;2023-07-20T12:11:43;25.40;99.90
22968;DHT22;11650;48.106;-1.696;2023-07-20T12:14:10;25.30;99.90
22968;DHT22;11650;48.106;-1.696;2023-07-20T12:16:37;25.30;99.90
22968;DHT22;11650;48.106;-1.696;2023-07-20T12:19:11;24.70;99.90
22968;DHT22;11650;48.106;-1.696;2023-07-20T12:21:39;24.80;99.90
22968;DHT22;11650;48.106;-1.696;2023-07-20T12:24:05;25.20;99.90
22968;DHT22;11650;48.106;-1.696;2023-07-20T12:26:33;25.30;99.90
22968;DHT22;11650;48.106;-1.696;2023-07-20T12:28:59;25.50;99.90
22968;DHT22;11650;48.106;-1.696;2023-07-20T12:31:26;25.80;99.90
22968;DHT22;11650;48.106;-1.696;2023-07-20T12:33:53;26.10;99.90
22968;DHT22;11650;48.106;-1.696;2023-07-20T12:36:21;25.80;99.90
22968;DHT22;11650;48.106;-1.696;2023-07-20T12:38:46;26.10;99.90
22968;DHT22;11650;48.106;-1.696;2023-07-20T12:41:13;25.40;99.90
22968;DHT22;11650;48.106;-1.696;2023-07-20T12:43:43;25.30;99.90
22968;DHT22;11650;48.106;-1.696;2023-07-20T12:46:10;25.10;99.90
22968;DHT22;11650;48.106;-1.696;2023-07-20T12:48:37;24.80;99.90
22968;DHT22;11650;48.106;-1.696;2023-07-20T12:51:03;24.90;99.90
22968;DHT22;11650;48.106;-1.696;2023-07-20T12:53:30;25.60;99.90
22968;DHT22;11650;48.106;-1.696;2023-07-20T12:55:56;25.60;99.90
22968;DHT22;11650;48.106;-1.696;2023-07-20T12:58:22;25.80;99.90
22968;DHT22;11650;48.106;-1.696;2023-07-20T13:00:49;26.00;99.90
22968;DHT22;11650;48.106;-1.696;2023-07-20T13:03:15;26.10;99.90
22968;DHT22;11650;48.106;-1.696;2023-07-20T13:05:41;26.10;99.90
22968;DHT22;11650;48.106;-1.696;2023-07-20T13:08:07;25.70;99.90
22968;DHT22;11650;48.106;-1.696;2023-07-20T13:10:33;25.80;99.90
22968;DHT22;11650;48.106;-1.696;2023-07-20T13:12:59;26.30;99.90
22968;DHT22;11650;48.106;-1.696;2023-07-20T13:15:30;26.60;99.90
22968;DHT22;11650;48.106;-1.696;2023-07-20T13:17:57;26.20;99.90
22968;DHT22;11650;48.106;-1.696;2023-07-20T13:20:24;25.80;99.90
22968;DHT22;11650;48.106;-1.696;2023-07-20T13:22:50;26.20;99.90
22968;DHT22;11650;48.106;-1.696;2023-07-20T13:25:16;26.10;99.90
22968;DHT22;11650;48.106;-1.696;2023-07-20T13:27:42;25.70;99.90
22968;DHT22;11650;48.106;-1.696;2023-07-20T13:30:08;26.30;99.90
22968;DHT22;11650;48.106;-1.696;2023-07-20T13:32:35;26.10;99.90
22968;DHT22;11650;48.106;-1.696;2023-07-20T13:35:01;26.30;99.90
22968;DHT22;11650;48.106;-1.696;2023-07-20T13:37:27;26.30;99.90
22968;DHT22;11650;48.106;-1.696;2023-07-20T13:39:54;26.60;99.90
22968;DHT22;11650;48.106;-1.696;2023-07-20T13:42:19;26.40;99.90
22968;DHT22;11650;48.106;-1.696;2023-07-20T13:44:47;26.20;99.90
22968;DHT22;11650;48.106;-1.696;2023-07-20T13:47:13;25.90;99.90
22968;DHT22;11650;48.106;-1.696;2023-07-20T13:49:39;25.50;99.90
22968;DHT22;11650;48.106;-1.696;2023-07-20T13:52:05;26.20;99.90
22968;DHT22;11650;48.106;-1.696;2023-07-20T13:54:31;26.90;99.90
22968;DHT22;11650;48.106;-1.696;2023-07-20T13:56:56;26.70;99.90
22968;DHT22;11650;48.106;-1.696;2023-07-20T13:59:23;26.80;99.90
22968;DHT22;11650;48.106;-1.696;2023-07-20T14:01:48;25.80;99.90
22968;DHT22;11650;48.106;-1.696;2023-07-20T14:04:14;25.50;99.90
22968;DHT22;11650;48.106;-1.696;2023-07-20T14:06:40;25.60;99.90
22968;DHT22;11650;48.106;-1.696;2023-07-20T14:09:06;26.10;99.90
22968;DHT22;11650;48.106;-1.696;2023-07-20T14:11:32;26.00;99.90
22968;DHT22;11650;48.106;-1.696;2023-07-20T14:13:58;25.60;99.90
22968;DHT22;11650;48.106;-1.696;2023-07-20T14:16:24;25.30;99.90
22968;DHT22;11650;48.106;-1.696;2023-07-20T14:18:50;25.60;99.90
22968;DHT22;11650;48.106;-1.696;2023-07-20T14:21:17;25.10;99.90
22968;DHT22;11650;48.106;-1.696;2023-07-20T14:23:51;25.40;99.90
22968;DHT22;11650;48.106;-1.696;2023-07-20T14:26:18;25.60;99.90
22968;DHT22;11650;48.106;-1.696;2023-07-20T14:28:43;24.70;99.90
22968;DHT22;11650;48.106;-1.696;2023-07-20T14:31:09;24.90;99.90
22968;DHT22;11650;48.106;-1.696;2023-07-20T14:33:35;25.00;99.90
22968;DHT22;11650;48.106;-1.696;2023-07-20T14:36:02;25.50;99.90
22968;DHT22;11650;48.106;-1.696;2023-07-20T14:38:30;25.40;99.90
22968;DHT22;11650;48.106;-1.696;2023-07-20T14:40:56;26.10;99.90
22968;DHT22;11650;48.106;-1.696;2023-07-20T14:43:22;26.40;99.90
22968;DHT22;11650;48.106;-1.696;2023-07-20T14:45:48;26.00;99.90
22968;DHT22;11650;48.106;-1.696;2023-07-20T14:48:14;25.80;99.90
22968;DHT22;11650;48.106;-1.696;2023-07-20T14:50:39;25.90;99.90
22968;DHT22;11650;48.106;-1.696;2023-07-20T14:53:05;25.80;99.90
22968;DHT22;11650;48.106;-1.696;2023-07-20T14:55:31;25.90;99.90
22968;DHT22;11650;48.106;-1.696;2023-07-20T14:57:57;26.20;99.90
22968;DHT22;11650;48.106;-1.696;2023-07-20T15:00:22;26.30;99.90
22968;DHT22;11650;48.106;-1.696;2023-07-20T15:02:48;26.90;99.90
22968;DHT22;11650;48.106;-1.696;2023-07-20T15:05:21;27.20;99.90
22968;DHT22;11650;48.106;-1.696;2023-07-20T15:07:47;27.50;99.90
22968;DHT22;11650;48.106;-1.696;2023-07-20T15:10:13;26.90;99.90
22968;DHT22;11650;48.106;-1.696;2023-07-20T15:12:39;27.00;99.90
22968;DHT22;11650;48.106;-1.696;2023-07-20T15:15:12;26.70;99.90
22968;DHT22;11650;48.106;-1.696;2023-07-20T15:17:39;26.60;99.90
22968;DHT22;11650;48.106;-1.696;2023-07-20T15:20:06;27.00;99.90
22968;DHT22;11650;48.106;-1.696;2023-07-20T15:22:33;26.60;99.90
22968;DHT22;11650;48.106;-1.696;2023-07-20T15:24:59;26.50;99.90